sensor_id;sensor_type;location;lat;lon;timestamp;pressure;altitude;pressure_sealevel;temperature;humidity
57048;BME280;42934;54.294;18.598;2023-02-19T00:00:07;100014.38;;;3.44;75.82
57048;BME280;42934;54.294;18.598;2023-02-19T00:03:02;100009.22;;;3.42;75.89
57048;BME280;42934;54.294;18.598;2023-02-19T00:05:31;100019.69;;;3.36;75.82
57048;BME280;42934;54.294;18.598;2023-02-19T00:08:03;100016.97;;;3.45;75.58
57048;BME280;42934;54.294;18.598;2023-02-19T00:10:32;100003.09;;;3.48;75.41
57048;BME280;42934;54.294;18.598;2023-02-19T00:13:01;100019.53;;;3.47;75.71
57048;BME280;42934;54.294;18.598;2023-02-19T00:15:33;100025.50;;;3.52;75.47
57048;BME280;42934;54.294;18.598;2023-02-19T00:18:02;100018.72;;;3.43;75.49
57048;BME280;42934;54.294;18.598;2023-02-19T00:20:31;100016.94;;;3.47;75.57
57048;BME280;42934;54.294;18.598;2023-02-19T00:23:00;100022.97;;;3.49;75.44
57048;BME280;42934;54.294;18.598;2023-02-19T00:25:29;100029.03;;;3.48;75.25
57048;BME280;42934;54.294;18.598;2023-02-19T00:27:59;100029.97;;;3.42;75.33
57048;BME280;42934;54.294;18.598;2023-02-19T00:30:28;100029.13;;;3.41;75.67
57048;BME280;42934;54.294;18.598;2023-02-19T00:32:59;100023.97;;;3.38;75.90
57048;BME280;42934;54.294;18.598;2023-02-19T00:35:28;100018.72;;;3.43;75.39
57048;BME280;42934;54.294;18.598;2023-02-19T00:37:57;100024.66;;;3.51;75.44
57048;BME280;42934;54.294;18.598;2023-02-19T00:40:26;100029.81;;;3.53;75.20
57048;BME280;42934;54.294;18.598;2023-02-19T00:42:55;100034.31;;;3.40;75.57
57048;BME280;42934;54.294;18.598;2023-02-19T00:45:25;100032.63;;;3.39;76.11
57048;BME280;42934;54.294;18.598;2023-02-19T00:47:55;100030.06;;;3.34;75.77
57048;BME280;42934;54.294;18.598;2023-02-19T00:50:26;100035.19;;;3.40;75.57
57048;BME280;42934;54.294;18.598;2023-02-19T00:52:55;100039.56;;;3.37;75.75
57048;BME280;42934;54.294;18.598;2023-02-19T00:55:24;100036.16;;;3.32;76.32
57048;BME280;42934;54.294;18.598;2023-02-19T00:57:53;100033.56;;;3.33;76.33
57048;BME280;42934;54.294;18.598;2023-02-19T01:00:23;100035.28;;;3.33;76.31
57048;BME280;42934;54.294;18.598;2023-02-19T01:02:52;100027.47;;;3.36;76.17
57048;BME280;42934;54.294;18.598;2023-02-19T01:05:27;100031.72;;;3.40;75.60
57048;BME280;42934;54.294;18.598;2023-02-19T01:07:56;100028.31;;;3.36;75.47
57048;BME280;42934;54.294;18.598;2023-02-19T01:10:25;100014.63;;;3.25;75.91
57048;BME280;42934;54.294;18.598;2023-02-19T01:12:54;100024.16;;;3.23;76.35
57048;BME280;42934;54.294;18.598;2023-02-19T01:15:24;100013.72;;;3.28;76.02
57048;BME280;42934;54.294;18.598;2023-02-19T01:17:53;100011.94;;;3.31;76.25
57048;BME280;42934;54.294;18.598;2023-02-19T01:20:22;100012.88;;;3.27;75.71
57048;BME280;42934;54.294;18.598;2023-02-19T01:22:54;100020.59;;;3.32;75.95
57048;BME280;42934;54.294;18.598;2023-02-19T01:25:23;100017.09;;;3.36;75.67
57048;BME280;42934;54.294;18.598;2023-02-19T01:27:52;100023.13;;;3.35;75.47
57048;BME280;42934;54.294;18.598;2023-02-19T01:30:21;100024.88;;;3.34;75.54
57048;BME280;42934;54.294;18.598;2023-02-19T01:32:51;100033.59;;;3.30;75.71
57048;BME280;42934;54.294;18.598;2023-02-19T01:35:20;100031.91;;;3.28;76.09
57048;BME280;42934;54.294;18.598;2023-02-19T01:37:49;100034.53;;;3.23;76.10
57048;BME280;42934;54.294;18.598;2023-02-19T01:40:20;100034.56;;;3.20;76.75
57048;BME280;42934;54.294;18.598;2023-02-19T01:42:49;100024.16;;;3.25;76.05
57048;BME280;42934;54.294;18.598;2023-02-19T01:45:27;100017.34;;;3.16;76.16
57048;BME280;42934;54.294;18.598;2023-02-19T01:48:06;100032.91;;;3.16;76.72
57048;BME280;42934;54.294;18.598;2023-02-19T01:50:42;100027.69;;;3.17;76.39
57048;BME280;42934;54.294;18.598;2023-02-19T01:53:13;100018.28;;;3.09;76.78
57048;BME280;42934;54.294;18.598;2023-02-19T01:55:48;100025.25;;;3.05;77.06
57048;BME280;42934;54.294;18.598;2023-02-19T01:58:19;100026.06;;;3.12;76.91
57048;BME280;42934;54.294;18.598;2023-02-19T02:00:49;100017.53;;;3.01;77.44
57048;BME280;42934;54.294;18.598;2023-02-19T02:03:19;100032.09;;;3.12;76.86
57048;BME280;42934;54.294;18.598;2023-02-19T02:05:53;100018.31;;;3.06;77.55
57048;BME280;42934;54.294;18.598;2023-02-19T02:08:24;100030.31;;;3.16;77.15
57048;BME280;42934;54.294;18.598;2023-02-19T02:11:14;100028.53;;;3.19;77.19
57048;BME280;42934;54.294;18.598;2023-02-19T02:13:43;100020.88;;;3.10;77.10
57048;BME280;42934;54.294;18.598;2023-02-19T02:16:21;100018.34;;;3.04;77.66
57048;BME280;42934;54.294;18.598;2023-02-19T02:18:58;100018.28;;;3.12;77.50
57048;BME280;42934;54.294;18.598;2023-02-19T02:21:52;100008.81;;;3.06;77.68
57048;BME280;42934;54.294;18.598;2023-02-19T02:24:50;100013.00;;;3.16;77.19
57048;BME280;42934;54.294;18.598;2023-02-19T02:27:48;100034.75;;;3.06;77.50
57048;BME280;42934;54.294;18.598;2023-02-19T02:30:36;100038.22;;;3.07;77.49
57048;BME280;42934;54.294;18.598;2023-02-19T02:33:16;100028.66;;;3.09;77.72
57048;BME280;42934;54.294;18.598;2023-02-19T02:35:51;100026.13;;;3.03;77.78
57048;BME280;42934;54.294;18.598;2023-02-19T02:38:25;100011.44;;;3.05;77.94
57048;BME280;42934;54.294;18.598;2023-02-19T02:40:57;100016.56;;;3.08;77.57
57048;BME280;42934;54.294;18.598;2023-02-19T02:43:26;100012.19;;;3.13;77.42
57048;BME280;42934;54.294;18.598;2023-02-19T02:45:57;100009.72;;;3.04;77.77
57048;BME280;42934;54.294;18.598;2023-02-19T02:48:34;100000.13;;;3.10;77.70
57048;BME280;42934;54.294;18.598;2023-02-19T02:51:13;99999.19;;;3.16;77.23
57048;BME280;42934;54.294;18.598;2023-02-19T02:53:55;99999.06;;;3.27;77.11
57048;BME280;42934;54.294;18.598;2023-02-19T02:56:43;100001.63;;;3.28;76.70
57048;BME280;42934;54.294;18.598;2023-02-19T02:59:15;99994.75;;;3.24;76.43
57048;BME280;42934;54.294;18.598;2023-02-19T03:01:50;100009.44;;;3.27;76.89
57048;BME280;42934;54.294;18.598;2023-02-19T03:04:46;100008.47;;;3.32;76.70
57048;BME280;42934;54.294;18.598;2023-02-19T03:07:37;100012.75;;;3.36;76.11
57048;BME280;42934;54.294;18.598;2023-02-19T03:10:10;100016.34;;;3.26;76.45
57048;BME280;42934;54.294;18.598;2023-02-19T03:12:42;100018.03;;;3.30;76.45
57048;BME280;42934;54.294;18.598;2023-02-19T03:15:34;100016.25;;;3.35;76.19
57048;BME280;42934;54.294;18.598;2023-02-19T03:18:26;100014.66;;;3.24;76.23
57048;BME280;42934;54.294;18.598;2023-02-19T03:21:16;100019.72;;;3.31;75.92
57048;BME280;42934;54.294;18.598;2023-02-19T03:23:47;100020.63;;;3.29;75.85
57048;BME280;42934;54.294;18.598;2023-02-19T03:26:37;100019.72;;;3.33;75.85
57048;BME280;42934;54.294;18.598;2023-02-19T03:29:08;100011.94;;;3.31;75.98
57048;BME280;42934;54.294;18.598;2023-02-19T03:32:07;100012.81;;;3.32;75.90
57048;BME280;42934;54.294;18.598;2023-02-19T03:34:43;100010.38;;;3.21;75.94
57048;BME280;42934;54.294;18.598;2023-02-19T03:37:17;100013.75;;;3.26;75.92
57048;BME280;42934;54.294;18.598;2023-02-19T03:39:53;100013.00;;;3.18;75.92
57048;BME280;42934;54.294;18.598;2023-02-19T03:42:32;100017.19;;;3.28;75.81
57048;BME280;42934;54.294;18.598;2023-02-19T03:45:18;100021.59;;;3.22;75.92
57048;BME280;42934;54.294;18.598;2023-02-19T03:47:59;100019.03;;;3.17;76.00
57048;BME280;42934;54.294;18.598;2023-02-19T03:50:42;100019.91;;;3.19;75.59
57048;BME280;42934;54.294;18.598;2023-02-19T03:53:21;100016.56;;;3.08;76.27
57048;BME280;42934;54.294;18.598;2023-02-19T03:56:02;100027.69;;;3.17;75.85
57048;BME280;42934;54.294;18.598;2023-02-19T03:58:41;100013.81;;;3.20;75.81
57048;BME280;42934;54.294;18.598;2023-02-19T04:01:16;100008.66;;;3.18;75.62
57048;BME280;42934;54.294;18.598;2023-02-19T04:03:52;100012.06;;;3.22;75.85
57048;BME280;42934;54.294;18.598;2023-02-19T04:06:26;100016.53;;;3.12;75.77
57048;BME280;42934;54.294;18.598;2023-02-19T04:08:58;100013.94;;;3.11;75.54
57048;BME280;42934;54.294;18.598;2023-02-19T04:11:30;100013.00;;;3.16;75.82
57048;BME280;42934;54.294;18.598;2023-02-19T04:14:07;100009.56;;;3.16;75.63
57048;BME280;42934;54.294;18.598;2023-02-19T04:16:40;100013.81;;;3.22;75.34
57048;BME280;42934;54.294;18.598;2023-02-19T04:19:15;100006.84;;;3.27;75.65
57048;BME280;42934;54.294;18.598;2023-02-19T04:21:49;100005.16;;;3.23;75.60
57048;BME280;42934;54.294;18.598;2023-02-19T04:24:24;100008.72;;;3.15;75.69
57048;BME280;42934;54.294;18.598;2023-02-19T04:26:55;100000.94;;;3.15;75.82
57048;BME280;42934;54.294;18.598;2023-02-19T04:29:25;99996.59;;;3.14;75.84
57048;BME280;42934;54.294;18.598;2023-02-19T04:31:54;99994.84;;;3.16;75.63
57048;BME280;42934;54.294;18.598;2023-02-19T04:34:23;99995.88;;;3.05;75.75
57048;BME280;42934;54.294;18.598;2023-02-19T04:36:54;100000.25;;;3.01;76.25
57048;BME280;42934;54.294;18.598;2023-02-19T04:39:23;99989.78;;;3.07;75.82
57048;BME280;42934;54.294;18.598;2023-02-19T04:41:52;99999.41;;;2.98;76.62
57048;BME280;42934;54.294;18.598;2023-02-19T04:44:22;99986.38;;;3.02;76.48
57048;BME280;42934;54.294;18.598;2023-02-19T04:46:51;99990.69;;;3.06;75.92
57048;BME280;42934;54.294;18.598;2023-02-19T04:49:20;99996.72;;;3.05;76.28
57048;BME280;42934;54.294;18.598;2023-02-19T04:51:49;99990.63;;;3.09;75.91
57048;BME280;42934;54.294;18.598;2023-02-19T04:54:20;99993.22;;;3.08;76.13
57048;BME280;42934;54.294;18.598;2023-02-19T04:56:49;99994.94;;;3.12;75.86
57048;BME280;42934;54.294;18.598;2023-02-19T04:59:18;99990.56;;;3.14;75.62
57048;BME280;42934;54.294;18.598;2023-02-19T05:01:47;99991.47;;;3.10;76.13
57048;BME280;42934;54.294;18.598;2023-02-19T05:04:17;99994.03;;;3.11;75.99
57048;BME280;42934;54.294;18.598;2023-02-19T05:06:46;99989.00;;;3.01;76.55
57048;BME280;42934;54.294;18.598;2023-02-19T05:09:15;100006.31;;;2.97;76.19
57048;BME280;42934;54.294;18.598;2023-02-19T05:11:46;100002.91;;;2.95;76.36
57048;BME280;42934;54.294;18.598;2023-02-19T05:14:15;100010.69;;;2.95;77.20
57048;BME280;42934;54.294;18.598;2023-02-19T05:16:44;100010.56;;;3.03;76.73
57048;BME280;42934;54.294;18.598;2023-02-19T05:19:14;100007.97;;;3.03;76.53
57048;BME280;42934;54.294;18.598;2023-02-19T05:21:43;100008.84;;;3.05;76.17
57048;BME280;42934;54.294;18.598;2023-02-19T05:24:12;100010.53;;;3.07;76.09
57048;BME280;42934;54.294;18.598;2023-02-19T05:26:41;100011.34;;;3.12;75.95
57048;BME280;42934;54.294;18.598;2023-02-19T05:29:13;100020.00;;;3.10;76.01
57048;BME280;42934;54.294;18.598;2023-02-19T05:31:43;100027.75;;;3.13;75.79
57048;BME280;42934;54.294;18.598;2023-02-19T05:34:12;100026.06;;;3.10;76.19
57048;BME280;42934;54.294;18.598;2023-02-19T05:36:41;100022.59;;;3.10;75.78
57048;BME280;42934;54.294;18.598;2023-02-19T05:39:11;100027.88;;;3.04;76.23
57048;BME280;42934;54.294;18.598;2023-02-19T05:41:40;100017.50;;;3.04;76.21
57048;BME280;42934;54.294;18.598;2023-02-19T05:44:10;100020.91;;;3.07;76.26
57048;BME280;42934;54.294;18.598;2023-02-19T05:46:40;100018.41;;;3.00;76.74
57048;BME280;42934;54.294;18.598;2023-02-19T05:49:10;100026.94;;;3.09;76.31
57048;BME280;42934;54.294;18.598;2023-02-19T05:51:39;100026.13;;;3.03;76.94
57048;BME280;42934;54.294;18.598;2023-02-19T05:54:09;100032.25;;;3.00;76.81
57048;BME280;42934;54.294;18.598;2023-02-19T05:56:40;100028.78;;;3.00;77.09
57048;BME280;42934;54.294;18.598;2023-02-19T05:59:15;100022.75;;;2.96;77.27
57048;BME280;42934;54.294;18.598;2023-02-19T06:01:46;100015.88;;;2.95;77.01
57048;BME280;42934;54.294;18.598;2023-02-19T06:04:16;100024.50;;;2.95;77.59
57048;BME280;42934;54.294;18.598;2023-02-19T06:06:47;100029.66;;;2.99;76.90
57048;BME280;42934;54.294;18.598;2023-02-19T06:09:17;100033.09;;;2.99;77.25
57048;BME280;42934;54.294;18.598;2023-02-19T06:11:46;100033.09;;;3.01;77.27
57048;BME280;42934;54.294;18.598;2023-02-19T06:14:15;100036.50;;;3.03;76.81
57048;BME280;42934;54.294;18.598;2023-02-19T06:16:46;100037.31;;;3.08;77.03
57048;BME280;42934;54.294;18.598;2023-02-19T06:19:15;100040.72;;;3.11;77.10
57048;BME280;42934;54.294;18.598;2023-02-19T06:21:44;100039.00;;;3.13;76.92
57048;BME280;42934;54.294;18.598;2023-02-19T06:24:14;100050.28;;;3.08;76.85
57048;BME280;42934;54.294;18.598;2023-02-19T06:26:43;100046.81;;;3.09;77.20
57048;BME280;42934;54.294;18.598;2023-02-19T06:29:13;100046.84;;;3.06;77.62
57048;BME280;42934;54.294;18.598;2023-02-19T06:31:42;100050.41;;;3.00;78.11
57048;BME280;42934;54.294;18.598;2023-02-19T06:34:13;100059.00;;;3.02;77.88
57048;BME280;42934;54.294;18.598;2023-02-19T06:36:42;100056.41;;;3.04;77.76
57048;BME280;42934;54.294;18.598;2023-02-19T06:39:11;100071.16;;;3.00;78.27
57048;BME280;42934;54.294;18.598;2023-02-19T06:41:40;100073.69;;;3.02;78.24
57048;BME280;42934;54.294;18.598;2023-02-19T06:44:10;100083.19;;;3.04;78.06
57048;BME280;42934;54.294;18.598;2023-02-19T06:46:39;100076.19;;;3.12;77.73
57048;BME280;42934;54.294;18.598;2023-02-19T06:49:08;100076.19;;;3.11;78.06
57048;BME280;42934;54.294;18.598;2023-02-19T06:51:39;100076.13;;;3.17;77.87
57048;BME280;42934;54.294;18.598;2023-02-19T06:54:08;100087.31;;;3.24;77.48
57048;BME280;42934;54.294;18.598;2023-02-19T06:56:38;100092.47;;;3.27;77.72
57048;BME280;42934;54.294;18.598;2023-02-19T06:59:10;100092.38;;;3.33;77.21
57048;BME280;42934;54.294;18.598;2023-02-19T07:01:40;100084.56;;;3.36;77.12
57048;BME280;42934;54.294;18.598;2023-02-19T07:04:10;100099.19;;;3.40;76.85
57048;BME280;42934;54.294;18.598;2023-02-19T07:06:41;100090.53;;;3.41;77.24
57048;BME280;42934;54.294;18.598;2023-02-19T07:09:10;100104.44;;;3.37;77.03
57048;BME280;42934;54.294;18.598;2023-02-19T07:11:39;100100.09;;;3.39;77.10
57048;BME280;42934;54.294;18.598;2023-02-19T07:14:14;100111.44;;;3.30;77.82
57048;BME280;42934;54.294;18.598;2023-02-19T07:16:44;100107.09;;;3.31;77.69
57048;BME280;42934;54.294;18.598;2023-02-19T07:19:15;100111.44;;;3.30;77.63
57048;BME280;42934;54.294;18.598;2023-02-19T07:21:45;100114.06;;;3.26;78.19
57048;BME280;42934;54.294;18.598;2023-02-19T07:24:14;100108.00;;;3.28;78.13
57048;BME280;42934;54.294;18.598;2023-02-19T07:26:44;100108.81;;;3.32;78.07
57048;BME280;42934;54.294;18.598;2023-02-19T07:29:13;100114.06;;;3.26;78.32
57048;BME280;42934;54.294;18.598;2023-02-19T07:31:42;100122.69;;;3.28;78.41
57048;BME280;42934;54.294;18.598;2023-02-19T07:34:12;100124.47;;;3.24;78.47
57048;BME280;42934;54.294;18.598;2023-02-19T07:36:41;100130.50;;;3.28;78.45
57048;BME280;42934;54.294;18.598;2023-02-19T07:39:13;100130.41;;;3.35;78.54
57048;BME280;42934;54.294;18.598;2023-02-19T07:41:42;100128.59;;;3.40;77.92
57048;BME280;42934;54.294;18.598;2023-02-19T07:44:22;100132.97;;;3.38;78.07
57048;BME280;42934;54.294;18.598;2023-02-19T07:46:52;100135.59;;;3.34;78.58
57048;BME280;42934;54.294;18.598;2023-02-19T07:49:21;100141.59;;;3.39;78.04
57048;BME280;42934;54.294;18.598;2023-02-19T07:51:50;100146.88;;;3.31;78.80
57048;BME280;42934;54.294;18.598;2023-02-19T07:54:21;100147.66;;;3.38;78.39
57048;BME280;42934;54.294;18.598;2023-02-19T07:56:50;100148.44;;;3.48;78.46
57048;BME280;42934;54.294;18.598;2023-02-19T07:59:19;100150.94;;;3.52;77.98
57048;BME280;42934;54.294;18.598;2023-02-19T08:01:49;100151.81;;;3.53;78.19
57048;BME280;42934;54.294;18.598;2023-02-19T08:04:35;100154.34;;;3.57;78.10
57048;BME280;42934;54.294;18.598;2023-02-19T08:07:05;100157.78;;;3.62;77.96
57048;BME280;42934;54.294;18.598;2023-02-19T08:09:35;100157.78;;;3.61;77.61
57048;BME280;42934;54.294;18.598;2023-02-19T08:12:05;100156.97;;;3.56;78.12
57048;BME280;42934;54.294;18.598;2023-02-19T08:14:51;100169.00;;;3.63;78.05
57048;BME280;42934;54.294;18.598;2023-02-19T08:17:21;100165.53;;;3.64;77.82
57048;BME280;42934;54.294;18.598;2023-02-19T08:19:50;100168.88;;;3.72;77.66
57048;BME280;42934;54.294;18.598;2023-02-19T08:22:19;100171.44;;;3.75;77.39
57048;BME280;42934;54.294;18.598;2023-02-19T08:24:50;100183.53;;;3.76;77.23
57048;BME280;42934;54.294;18.598;2023-02-19T08:27:19;100180.91;;;3.82;77.59
57048;BME280;42934;54.294;18.598;2023-02-19T08:29:48;100184.25;;;3.89;77.05
57048;BME280;42934;54.294;18.598;2023-02-19T08:32:17;100183.34;;;3.95;76.97
57048;BME280;42934;54.294;18.598;2023-02-19T08:34:47;100185.97;;;3.92;76.50
57048;BME280;42934;54.294;18.598;2023-02-19T08:37:17;100198.91;;;3.95;76.17
57048;BME280;42934;54.294;18.598;2023-02-19T08:39:46;100193.56;;;4.07;76.32
57048;BME280;42934;54.294;18.598;2023-02-19T08:42:16;100196.91;;;4.14;76.29
57048;BME280;42934;54.294;18.598;2023-02-19T08:44:46;100196.91;;;4.15;76.01
57048;BME280;42934;54.294;18.598;2023-02-19T08:47:15;100210.63;;;4.23;75.57
57048;BME280;42934;54.294;18.598;2023-02-19T08:49:45;100208.88;;;4.27;75.89
57048;BME280;42934;54.294;18.598;2023-02-19T08:52:14;100205.28;;;4.34;75.30
57048;BME280;42934;54.294;18.598;2023-02-19T08:54:43;100209.59;;;4.37;75.37
57048;BME280;42934;54.294;18.598;2023-02-19T08:57:12;100219.19;;;4.33;74.23
57048;BME280;42934;54.294;18.598;2023-02-19T08:59:43;100223.47;;;4.36;74.20
57048;BME280;42934;54.294;18.598;2023-02-19T09:02:12;100217.31;;;4.43;74.86
57048;BME280;42934;54.294;18.598;2023-02-19T09:04:41;100220.75;;;4.43;73.97
57048;BME280;42934;54.294;18.598;2023-02-19T09:07:12;100220.66;;;4.49;74.11
57048;BME280;42934;54.294;18.598;2023-02-19T09:09:41;100230.16;;;4.53;73.85
57048;BME280;42934;54.294;18.598;2023-02-19T09:12:11;100230.91;;;4.60;73.42
57048;BME280;42934;54.294;18.598;2023-02-19T09:14:43;100239.47;;;4.67;73.27
57048;BME280;42934;54.294;18.598;2023-02-19T09:17:12;100240.28;;;4.72;72.95
57048;BME280;42934;54.294;18.598;2023-02-19T09:19:41;100232.38;;;4.78;72.79
57048;BME280;42934;54.294;18.598;2023-02-19T09:22:10;100238.38;;;4.83;72.52
57048;BME280;42934;54.294;18.598;2023-02-19T09:24:41;100223.56;;;4.88;72.37
57048;BME280;42934;54.294;18.598;2023-02-19T09:27:14;100235.56;;;4.94;71.70
57048;BME280;42934;54.294;18.598;2023-02-19T09:29:47;100230.31;;;4.98;71.04
57048;BME280;42934;54.294;18.598;2023-02-19T09:32:15;100227.53;;;5.09;71.12
57048;BME280;42934;54.294;18.598;2023-02-19T09:34:46;100229.03;;;5.22;71.51
57048;BME280;42934;54.294;18.598;2023-02-19T09:37:15;100241.00;;;5.33;70.65
57048;BME280;42934;54.294;18.598;2023-02-19T09:39:44;100241.69;;;5.42;70.26
57048;BME280;42934;54.294;18.598;2023-02-19T09:42:16;100240.78;;;5.45;70.21
57048;BME280;42934;54.294;18.598;2023-02-19T09:44:50;100250.25;;;5.49;69.69
57048;BME280;42934;54.294;18.598;2023-02-19T09:47:22;100257.06;;;5.56;69.45
57048;BME280;42934;54.294;18.598;2023-02-19T09:49:53;100260.47;;;5.60;69.23
57048;BME280;42934;54.294;18.598;2023-02-19T09:52:29;100266.47;;;5.65;68.10
57048;BME280;42934;54.294;18.598;2023-02-19T09:55:03;100260.38;;;5.64;66.67
57048;BME280;42934;54.294;18.598;2023-02-19T09:57:37;100252.38;;;5.75;68.03
57048;BME280;42934;54.294;18.598;2023-02-19T10:00:20;100263.56;;;5.80;67.10
57048;BME280;42934;54.294;18.598;2023-02-19T10:02:54;100258.44;;;5.76;64.10
57048;BME280;42934;54.294;18.598;2023-02-19T10:05:27;100266.97;;;5.84;66.31
57048;BME280;42934;54.294;18.598;2023-02-19T10:07:57;100273.09;;;5.81;64.60
57048;BME280;42934;54.294;18.598;2023-02-19T10:10:28;100273.00;;;5.86;65.29
57048;BME280;42934;54.294;18.598;2023-02-19T10:17:56;100277.91;;;6.03;65.32
57048;BME280;42934;54.294;18.598;2023-02-19T10:20:26;100277.69;;;6.13;64.77
57048;BME280;42934;54.294;18.598;2023-02-19T10:22:59;100277.50;;;6.23;65.56
57048;BME280;42934;54.294;18.598;2023-02-19T10:25:32;100279.97;;;6.29;65.00
57048;BME280;42934;54.294;18.598;2023-02-19T10:28:02;100275.63;;;6.29;63.96
57048;BME280;42934;54.294;18.598;2023-02-19T10:30:33;100282.47;;;6.35;64.27
57048;BME280;42934;54.294;18.598;2023-02-19T10:33:10;100277.16;;;6.40;63.55
57048;BME280;42934;54.294;18.598;2023-02-19T10:35:52;100281.59;;;6.36;61.92
57048;BME280;42934;54.294;18.598;2023-02-19T10:38:24;100285.13;;;6.33;62.86
57048;BME280;42934;54.294;18.598;2023-02-19T10:41:00;100285.06;;;6.35;63.30
57048;BME280;42934;54.294;18.598;2023-02-19T10:43:34;100301.63;;;6.34;63.02
57048;BME280;42934;54.294;18.598;2023-02-19T10:46:06;100297.31;;;6.31;62.74
57048;BME280;42934;54.294;18.598;2023-02-19T10:48:48;100301.69;;;6.31;63.01
57048;BME280;42934;54.294;18.598;2023-02-19T10:51:18;100292.41;;;6.16;61.99
57048;BME280;42934;54.294;18.598;2023-02-19T10:54:02;100300.38;;;6.10;59.63
57048;BME280;42934;54.294;18.598;2023-02-19T10:56:32;100302.06;;;6.12;61.07
57048;BME280;42934;54.294;18.598;2023-02-19T10:59:20;100308.53;;;5.90;58.33
57048;BME280;42934;54.294;18.598;2023-02-19T11:01:55;100305.06;;;5.89;59.73
57048;BME280;42934;54.294;18.598;2023-02-19T11:04:28;100316.25;;;5.96;59.46
57048;BME280;42934;54.294;18.598;2023-02-19T11:07:07;100315.91;;;6.14;59.85
57048;BME280;42934;54.294;18.598;2023-02-19T11:09:38;100318.50;;;6.14;60.13
57048;BME280;42934;54.294;18.598;2023-02-19T11:12:09;100328.84;;;6.21;56.47
57048;BME280;42934;54.294;18.598;2023-02-19T11:14:42;100316.97;;;6.48;57.05
57048;BME280;42934;54.294;18.598;2023-02-19T11:17:22;100314.03;;;6.63;56.17
57048;BME280;42934;54.294;18.598;2023-02-19T11:19:54;100319.91;;;6.73;54.36
57048;BME280;42934;54.294;18.598;2023-02-19T11:22:30;100324.81;;;6.46;50.63
57048;BME280;42934;54.294;18.598;2023-02-19T11:25:04;100327.47;;;6.45;53.47
57048;BME280;42934;54.294;18.598;2023-02-19T11:27:34;100327.94;;;6.64;53.97
57048;BME280;42934;54.294;18.598;2023-02-19T11:33:23;100332.91;;;7.13;54.03
57048;BME280;42934;54.294;18.598;2023-02-19T11:36:14;100329.13;;;7.26;54.20
57048;BME280;42934;54.294;18.598;2023-02-19T11:38:45;100342.03;;;7.31;53.11
57048;BME280;42934;54.294;18.598;2023-02-19T11:41:22;100337.63;;;7.69;53.02
57048;BME280;42934;54.294;18.598;2023-02-19T11:44:02;100335.34;;;7.55;52.29
57048;BME280;42934;54.294;18.598;2023-02-19T11:46:45;100342.34;;;7.55;53.37
57048;BME280;42934;54.294;18.598;2023-02-19T11:49:28;100348.16;;;7.66;53.42
57048;BME280;42934;54.294;18.598;2023-02-19T11:52:15;100357.03;;;7.93;53.25
57048;BME280;42934;54.294;18.598;2023-02-19T11:54:53;100348.06;;;7.69;51.07
57048;BME280;42934;54.294;18.598;2023-02-19T11:57:37;100351.19;;;7.49;52.46
57048;BME280;42934;54.294;18.598;2023-02-19T12:20:36;100375.16;;;8.32;48.93
57048;BME280;42934;54.294;18.598;2023-02-19T12:29:53;100389.50;;;7.84;48.53
57048;BME280;42934;54.294;18.598;2023-02-19T12:35:49;100394.66;;;7.51;48.74
57048;BME280;42934;54.294;18.598;2023-02-19T12:38:29;100397.38;;;7.47;48.05
57048;BME280;42934;54.294;18.598;2023-02-19T12:46:50;100408.97;;;6.96;47.62
57048;BME280;42934;54.294;18.598;2023-02-19T12:50:26;100423.78;;;6.96;47.50
57048;BME280;42934;54.294;18.598;2023-02-19T12:53:06;100418.63;;;6.93;47.92
57048;BME280;42934;54.294;18.598;2023-02-19T12:55:39;100420.47;;;6.88;48.90
57048;BME280;42934;54.294;18.598;2023-02-19T12:58:15;100430.09;;;6.86;48.32
57048;BME280;42934;54.294;18.598;2023-02-19T13:00:51;100431.09;;;6.78;49.22
57048;BME280;42934;54.294;18.598;2023-02-19T13:24:22;100419.34;;;7.76;47.95
57048;BME280;42934;54.294;18.598;2023-02-19T13:27:07;100417.66;;;7.73;48.08
57048;BME280;42934;54.294;18.598;2023-02-19T13:29:58;100429.25;;;7.61;46.28
57048;BME280;42934;54.294;18.598;2023-02-19T13:32:46;100434.94;;;7.43;46.97
57048;BME280;42934;54.294;18.598;2023-02-19T13:38:15;100438.91;;;7.20;45.93
57048;BME280;42934;54.294;18.598;2023-02-19T13:40:54;100434.81;;;7.09;43.75
57048;BME280;42934;54.294;18.598;2023-02-19T13:43:31;100446.00;;;7.15;45.45
57048;BME280;42934;54.294;18.598;2023-02-19T13:46:49;100456.19;;;7.26;45.39
57048;BME280;42934;54.294;18.598;2023-02-19T13:49:42;100465.56;;;7.35;44.99
57048;BME280;42934;54.294;18.598;2023-02-19T13:52:38;100461.19;;;7.37;45.54
57048;BME280;42934;54.294;18.598;2023-02-19T14:09:46;100485.09;;;7.18;44.25
57048;BME280;42934;54.294;18.598;2023-02-19T14:12:20;100486.78;;;7.21;44.58
57048;BME280;42934;54.294;18.598;2023-02-19T14:14:50;100494.66;;;7.19;43.94
57048;BME280;42934;54.294;18.598;2023-02-19T14:17:25;100491.88;;;7.27;44.05
57048;BME280;42934;54.294;18.598;2023-02-19T14:24:11;100505.66;;;7.34;44.50
57048;BME280;42934;54.294;18.598;2023-02-19T14:26:44;100508.19;;;7.37;44.24
57048;BME280;42934;54.294;18.598;2023-02-19T14:32:39;100508.06;;;7.43;44.67
57048;BME280;42934;54.294;18.598;2023-02-19T14:35:18;100507.91;;;7.50;44.54
57048;BME280;42934;54.294;18.598;2023-02-19T14:37:48;100510.59;;;7.46;45.11
57048;BME280;42934;54.294;18.598;2023-02-19T14:40:22;100508.47;;;7.24;44.73
57048;BME280;42934;54.294;18.598;2023-02-19T14:42:54;100506.28;;;7.04;45.48
57048;BME280;42934;54.294;18.598;2023-02-19T14:45:29;100509.28;;;6.85;44.97
57048;BME280;42934;54.294;18.598;2023-02-19T14:48:02;100517.41;;;6.69;45.93
57048;BME280;42934;54.294;18.598;2023-02-19T14:50:32;100522.78;;;6.60;46.29
57048;BME280;42934;54.294;18.598;2023-02-19T14:53:04;100526.50;;;6.48;46.91